Time;durP1;ratioP1;P1;durP2;ratioP2;P2;SDS_P1;SDS_P2;PMS_P1;PMS_P2;Temp;Humidity;BMP_temperature;BMP_pressure;BME280_temperature;BME280_humidity;BME280_pressure;Samples;Min_cycle;Max_cycle;Signal;HPM_P1;HPM_P2
2023/04/26 00:00:23;;;;;;;10.85;3.33;;;3.80;99.90;;;;;;6214869;23;20001;-83
2023/04/26 00:02:49;;;;;;;9.07;3.42;;;3.80;99.90;;;;;;6214271;23;20007;-83
2023/04/26 00:05:15;;;;;;;12.00;4.10;;;3.70;99.90;;;;;;6214431;23;20016;-83
2023/04/26 00:07:41;;;;;;;7.60;3.03;;;3.60;99.90;;;;;;6214665;23;20004;-83
2023/04/26 00:10:08;;;;;;;9.27;3.13;;;3.60;99.90;;;;;;6187127;23;20004;-83
2023/04/26 00:12:35;;;;;;;16.58;3.40;;;3.50;99.90;;;;;;6214270;23;20015;-83
2023/04/26 00:15:00;;;;;;;9.95;2.60;;;3.50;99.90;;;;;;6187496;23;20027;-83
2023/04/26 00:17:26;;;;;;;8.18;3.30;;;3.50;99.90;;;;;;6212584;23;20143;-83
2023/04/26 00:19:51;;;;;;;9.48;3.95;;;3.50;99.90;;;;;;6162056;23;20379;-83
2023/04/26 00:22:17;;;;;;;8.13;2.92;;;3.60;99.90;;;;;;6213948;23;20446;-82
2023/04/26 00:24:43;;;;;;;8.10;3.05;;;3.50;99.90;;;;;;6214932;23;20015;-83
2023/04/26 00:27:09;;;;;;;8.48;2.88;;;3.50;99.90;;;;;;6214363;23;20009;-82
2023/04/26 00:29:36;;;;;;;15.57;4.43;;;3.50;99.90;;;;;;6214334;23;19997;-83
2023/04/26 00:32:02;;;;;;;9.73;3.55;;;3.50;99.90;;;;;;6186601;23;20009;-82
2023/04/26 00:34:35;;;;;;;10.57;3.53;;;3.50;99.90;;;;;;6214191;23;20071;-83
2023/04/26 00:37:01;;;;;;;10.88;3.83;;;3.40;99.90;;;;;;6187277;23;20126;-83
2023/04/26 00:39:26;;;;;;;10.43;3.20;;;3.40;99.90;;;;;;6187588;23;20379;-83
2023/04/26 00:41:52;;;;;;;10.32;3.17;;;3.40;99.90;;;;;;6208928;23;20001;-83
2023/04/26 00:44:18;;;;;;;9.40;3.35;;;3.50;99.90;;;;;;6214368;23;20078;-83
2023/04/26 00:46:43;;;;;;;10.25;3.47;;;3.40;99.90;;;;;;6214665;23;20013;-83
2023/04/26 00:49:15;;;;;;;11.55;3.95;;;3.40;99.90;;;;;;6187126;23;20032;-83
2023/04/26 00:51:42;;;;;;;12.23;3.25;;;3.30;99.90;;;;;;6214218;23;20083;-83
2023/04/26 00:54:08;;;;;;;14.10;4.80;;;3.30;99.90;;;;;;6187346;23;20103;-83
2023/04/26 00:56:37;;;;;;;9.88;4.20;;;3.40;99.90;;;;;;6214128;23;20004;-83
2023/04/26 00:59:03;;;;;;;12.07;3.67;;;3.30;99.90;;;;;;6215801;23;20024;-84
2023/04/26 01:01:29;;;;;;;8.98;3.45;;;3.40;99.90;;;;;;6214615;23;20363;-82
2023/04/26 01:03:54;;;;;;;7.95;3.58;;;3.30;99.90;;;;;;6214058;23;20094;-82
2023/04/26 01:06:21;;;;;;;10.52;3.30;;;3.30;99.90;;;;;;6213798;23;20012;-82
2023/04/26 01:08:46;;;;;;;7.43;3.25;;;3.30;99.90;;;;;;6214027;23;20388;-85
2023/04/26 01:11:13;;;;;;;12.00;3.38;;;3.30;99.90;;;;;;6213838;23;20036;-84
2023/04/26 01:13:41;;;;;;;7.68;3.20;;;3.30;99.90;;;;;;6213757;23;20309;-83
2023/04/26 01:16:07;;;;;;;11.93;3.80;;;3.20;99.90;;;;;;6214085;23;20000;-83
2023/04/26 01:18:33;;;;;;;15.90;4.28;;;3.30;99.90;;;;;;6214097;23;20106;-83
2023/04/26 01:20:58;;;;;;;11.38;4.03;;;3.20;99.90;;;;;;6187729;23;20008;-83
2023/04/26 01:23:24;;;;;;;14.80;4.28;;;3.20;99.90;;;;;;6213956;23;20451;-83
2023/04/26 01:25:50;;;;;;;11.95;4.10;;;3.20;99.90;;;;;;6213771;23;20009;-83
2023/04/26 01:28:16;;;;;;;9.23;3.60;;;3.20;99.90;;;;;;6213638;23;20032;-83
2023/04/26 01:30:42;;;;;;;11.00;3.95;;;3.30;99.90;;;;;;6187195;23;20044;-83
2023/04/26 01:33:07;;;;;;;13.07;4.07;;;3.30;99.90;;;;;;6213871;23;20581;-84
2023/04/26 01:35:33;;;;;;;13.60;4.20;;;3.30;99.90;;;;;;6212449;23;20574;-84
2023/04/26 01:37:58;;;;;;;8.85;3.28;;;3.30;99.90;;;;;;6213726;23;20007;-83
2023/04/26 01:40:24;;;;;;;13.05;3.97;;;3.20;99.90;;;;;;6183833;23;20004;-83
2023/04/26 01:42:50;;;;;;;7.80;3.40;;;3.10;99.90;;;;;;6224476;23;20028;-83
2023/04/26 01:45:16;;;;;;;14.48;3.70;;;3.10;99.90;;;;;;6235167;23;20020;-82
2023/04/26 01:47:41;;;;;;;16.67;4.65;;;3.10;99.90;;;;;;6240310;22;19988;-83
2023/04/26 01:50:08;;;;;;;11.10;3.50;;;3.10;99.90;;;;;;6241148;22;20012;-83
2023/04/26 01:52:33;;;;;;;11.60;4.30;;;3.20;99.90;;;;;;6190904;23;20013;-82
2023/04/26 01:54:59;;;;;;;9.90;3.85;;;3.10;99.90;;;;;;6214131;23;20011;-83
2023/04/26 01:57:24;;;;;;;9.73;4.07;;;3.10;99.90;;;;;;6216080;23;20000;-83
2023/04/26 01:59:50;;;;;;;14.13;4.53;;;3.10;99.90;;;;;;6215893;23;20008;-84
2023/04/26 02:02:19;;;;;;;10.45;3.83;;;3.00;99.90;;;;;;6188976;23;20009;-83
2023/04/26 02:04:44;;;;;;;13.75;4.32;;;3.00;99.90;;;;;;6215774;23;20304;-83
2023/04/26 02:07:10;;;;;;;9.50;3.50;;;3.00;99.90;;;;;;6215876;23;20000;-83
2023/04/26 02:09:35;;;;;;;17.48;4.65;;;3.00;99.90;;;;;;6215823;23;20008;-83
2023/04/26 02:12:01;;;;;;;13.27;4.53;;;3.00;99.90;;;;;;6189140;23;20047;-83
2023/04/26 02:14:27;;;;;;;11.02;4.40;;;3.00;99.90;;;;;;6215688;23;20011;-82
2023/04/26 02:16:52;;;;;;;9.30;3.22;;;3.00;99.90;;;;;;6215834;23;20005;-83
2023/04/26 02:19:18;;;;;;;10.35;3.60;;;2.90;99.90;;;;;;6215286;23;20001;-82
2023/04/26 02:21:54;;;;;;;9.93;4.20;;;2.90;99.90;;;;;;6215738;23;20020;-83
2023/04/26 02:24:20;;;;;;;14.75;3.72;;;2.90;99.90;;;;;;6215664;23;20004;-83
2023/04/26 02:26:46;;;;;;;12.05;3.47;;;2.80;99.90;;;;;;6215369;23;20022;-82
2023/04/26 02:29:12;;;;;;;8.20;3.55;;;2.70;99.90;;;;;;6215479;23;20079;-82
2023/04/26 02:31:37;;;;;;;8.68;3.53;;;2.80;99.90;;;;;;6215750;23;20009;-83
2023/04/26 02:34:02;;;;;;;11.57;4.35;;;2.70;99.90;;;;;;6215634;23;20005;-83
2023/04/26 02:36:28;;;;;;;16.05;4.50;;;2.80;99.90;;;;;;6214906;23;20058;-83
2023/04/26 02:38:54;;;;;;;12.13;4.13;;;2.70;99.90;;;;;;6214441;23;20450;-83
2023/04/26 02:41:19;;;;;;;11.73;3.97;;;2.70;99.90;;;;;;6182942;23;20028;-83
2023/04/26 02:43:45;;;;;;;10.32;3.38;;;2.70;99.90;;;;;;6215086;23;20001;-84
2023/04/26 02:46:10;;;;;;;10.07;4.00;;;2.70;99.90;;;;;;6214358;23;20016;-82
2023/04/26 02:48:36;;;;;;;11.43;4.20;;;2.70;99.90;;;;;;6213877;23;20335;-81
2023/04/26 02:51:01;;;;;;;12.07;5.07;;;2.60;99.90;;;;;;6214954;23;20004;-83
2023/04/26 02:53:27;;;;;;;12.65;4.05;;;2.70;99.90;;;;;;6214866;23;20039;-83
2023/04/26 02:55:52;;;;;;;13.32;4.85;;;2.60;99.90;;;;;;6214254;23;20064;-82
2023/04/26 02:58:18;;;;;;;15.00;4.85;;;2.60;99.90;;;;;;6214680;23;20076;-81
2023/04/26 03:00:47;;;;;;;11.40;4.22;;;2.60;99.90;;;;;;6214060;23;20309;-83
2023/04/26 03:03:13;;;;;;;15.27;4.55;;;2.60;99.90;;;;;;6215187;23;20332;-83
2023/04/26 03:05:39;;;;;;;13.70;4.60;;;2.60;99.90;;;;;;6214703;23;20095;-83
2023/04/26 03:08:05;;;;;;;13.95;4.82;;;2.60;99.90;;;;;;6215267;23;20070;-83
2023/04/26 03:10:30;;;;;;;11.10;4.07;;;2.60;99.90;;;;;;6212613;23;20102;-82
2023/04/26 03:12:56;;;;;;;12.80;4.43;;;2.60;99.90;;;;;;6204627;23;20081;-83
2023/04/26 03:15:21;;;;;;;12.80;4.65;;;2.60;99.90;;;;;;6204156;23;20000;-85
2023/04/26 03:17:47;;;;;;;14.85;4.55;;;2.60;99.90;;;;;;6200926;23;20000;-83
2023/04/26 03:20:13;;;;;;;13.93;5.05;;;2.60;99.90;;;;;;6200573;23;20005;-83
2023/04/26 03:22:39;;;;;;;9.63;4.00;;;2.50;99.90;;;;;;6200868;23;20032;-83
2023/04/26 03:25:06;;;;;;;10.30;3.90;;;2.50;99.90;;;;;;6206126;23;20020;-84
2023/04/26 03:27:32;;;;;;;12.13;4.10;;;2.40;99.90;;;;;;6200581;23;20547;-84
2023/04/26 03:29:57;;;;;;;16.02;4.32;;;2.40;99.90;;;;;;6209249;23;20005;-83
2023/04/26 03:32:23;;;;;;;16.85;5.10;;;2.50;99.90;;;;;;6208575;23;20083;-83
2023/04/26 03:34:48;;;;;;;14.88;4.78;;;2.50;99.90;;;;;;6215297;23;20005;-82
2023/04/26 03:37:14;;;;;;;18.25;5.55;;;2.50;99.90;;;;;;6213889;23;20013;-83
2023/04/26 03:39:40;;;;;;;11.60;4.57;;;2.40;99.90;;;;;;6214341;23;20012;-83
2023/04/26 03:42:05;;;;;;;11.75;4.55;;;2.50;99.90;;;;;;6214384;23;20000;-83
2023/04/26 03:44:31;;;;;;;9.93;4.30;;;2.50;99.90;;;;;;6214849;23;20028;-83
2023/04/26 03:46:56;;;;;;;15.48;4.68;;;2.50;99.90;;;;;;6213902;23;20400;-84
2023/04/26 03:49:22;;;;;;;13.73;4.90;;;2.50;99.90;;;;;;6214770;23;20180;-83
2023/04/26 03:51:48;;;;;;;14.07;5.28;;;2.50;99.90;;;;;;6214088;23;20336;-83
2023/04/26 03:54:13;;;;;;;13.20;5.25;;;2.50;99.90;;;;;;6214328;23;20007;-83
2023/04/26 03:56:39;;;;;;;13.38;5.10;;;2.50;99.90;;;;;;6213775;23;20289;-83
2023/04/26 03:59:04;;;;;;;17.40;4.82;;;2.50;99.90;;;;;;6214501;23;20440;-83
2023/04/26 04:01:30;;;;;;;16.65;5.47;;;2.60;99.90;;;;;;6214491;23;20432;-83
2023/04/26 04:03:56;;;;;;;10.48;4.88;;;2.60;99.90;;;;;;6214477;23;20011;-83
2023/04/26 04:06:21;;;;;;;12.98;4.85;;;2.60;99.90;;;;;;6213430;23;20103;-83
2023/04/26 04:08:47;;;;;;;16.45;5.28;;;2.70;99.90;;;;;;6208055;23;20001;-82
2023/04/26 04:11:13;;;;;;;12.20;4.47;;;2.70;99.90;;;;;;6214387;23;20004;-83
2023/04/26 04:13:38;;;;;;;14.18;5.10;;;2.80;99.90;;;;;;6214474;23;20331;-82
2023/04/26 04:16:04;;;;;;;11.13;4.75;;;2.80;99.90;;;;;;6214216;23;20008;-84
2023/04/26 04:18:30;;;;;;;15.00;5.40;;;2.90;99.90;;;;;;6214136;23;20008;-83
2023/04/26 04:20:55;;;;;;;13.80;6.00;;;3.10;99.90;;;;;;6214727;23;20008;-83
2023/04/26 04:23:21;;;;;;;11.38;4.90;;;3.30;99.90;;;;;;6214621;23;20116;-83
2023/04/26 04:25:47;;;;;;;12.70;4.78;;;3.30;99.90;;;;;;6214706;23;20458;-83
2023/04/26 04:28:13;;;;;;;15.75;5.50;;;3.40;99.90;;;;;;6214913;23;20003;-83
2023/04/26 04:30:40;;;;;;;11.50;4.63;;;3.40;99.90;;;;;;6214743;23;20008;-84
2023/04/26 04:33:05;;;;;;;14.23;5.35;;;3.40;99.90;;;;;;6214637;23;20319;-84
2023/04/26 04:35:32;;;;;;;18.20;5.55;;;3.60;99.90;;;;;;6214468;23;20130;-84
2023/04/26 04:37:58;;;;;;;12.60;5.25;;;3.70;99.90;;;;;;6214395;23;20080;-84
2023/04/26 04:40:24;;;;;;;10.90;4.82;;;4.20;99.90;;;;;;6214684;23;20434;-84
2023/04/26 04:42:51;;;;;;;13.57;5.05;;;4.80;99.90;;;;;;6214512;23;20005;-84
2023/04/26 04:45:16;;;;;;;14.07;4.45;;;5.60;99.90;;;;;;6216592;23;20099;-85
2023/04/26 04:47:44;;;;;;;12.05;4.72;;;6.50;99.90;;;;;;6215512;23;20336;-84
2023/04/26 04:50:09;;;;;;;8.38;4.55;;;7.20;99.90;;;;;;6210846;23;20017;-84
2023/04/26 04:52:35;;;;;;;12.68;5.28;;;8.00;99.90;;;;;;6214409;23;20376;-85
2023/04/26 04:55:02;;;;;;;14.82;4.53;;;8.90;99.90;;;;;;6214535;23;20007;-83
2023/04/26 04:57:28;;;;;;;11.77;4.20;;;9.30;99.90;;;;;;6214474;23;20027;-83
2023/04/26 04:59:54;;;;;;;13.55;4.07;;;9.80;99.90;;;;;;6214863;23;20005;-83
2023/04/26 05:02:19;;;;;;;9.90;4.35;;;10.30;99.90;;;;;;6219513;23;20031;-82
2023/04/26 05:04:45;;;;;;;10.10;4.43;;;10.60;99.90;;;;;;6238125;23;20023;-83
2023/04/26 05:07:11;;;;;;;11.15;4.68;;;10.60;99.90;;;;;;6239387;23;20036;-86
2023/04/26 05:09:37;;;;;;;14.20;4.20;;;10.80;99.90;;;;;;6241526;22;19988;-84
2023/04/26 05:12:03;;;;;;;12.45;4.75;;;10.50;99.90;;;;;;6227160;22;20435;-84
2023/04/26 05:14:28;;;;;;;11.40;4.25;;;10.80;99.90;;;;;;6214467;23;20004;-83
2023/04/26 05:16:54;;;;;;;17.35;5.45;;;11.00;99.90;;;;;;6188099;23;20027;-83
2023/04/26 05:19:20;;;;;;;14.25;4.00;;;11.20;99.90;;;;;;6214324;23;20024;-83
2023/04/26 05:21:45;;;;;;;9.20;3.60;;;11.20;99.90;;;;;;6208866;23;20091;-84
2023/04/26 05:24:11;;;;;;;8.98;4.28;;;11.20;99.90;;;;;;6214691;23;20364;-83
2023/04/26 05:26:36;;;;;;;12.95;4.68;;;11.40;99.90;;;;;;6214826;23;20012;-84
2023/04/26 05:29:02;;;;;;;10.73;3.83;;;11.70;99.90;;;;;;6213786;23;20001;-84
2023/04/26 05:31:28;;;;;;;14.02;4.40;;;12.20;99.90;;;;;;6213252;23;20007;-84
2023/04/26 05:33:53;;;;;;;11.95;4.00;;;12.70;99.90;;;;;;6213782;23;20063;-83
2023/04/26 05:36:19;;;;;;;11.35;4.53;;;12.60;99.90;;;;;;6214126;23;20008;-84
2023/04/26 05:38:44;;;;;;;12.23;3.80;;;13.10;99.90;;;;;;6186834;23;20095;-83
2023/04/26 05:41:10;;;;;;;13.73;4.45;;;13.30;99.90;;;;;;6214469;23;20004;-84
2023/04/26 05:43:36;;;;;;;10.07;4.05;;;13.90;99.90;;;;;;6214452;23;20005;-84
2023/04/26 05:46:02;;;;;;;11.18;4.07;;;14.20;99.90;;;;;;6214396;23;20012;-83
2023/04/26 05:48:28;;;;;;;12.15;4.05;;;13.60;99.60;;;;;;6213531;23;20008;-84
2023/04/26 05:50:54;;;;;;;12.38;4.65;;;13.60;99.90;;;;;;6214217;23;20425;-83
2023/04/26 05:53:20;;;;;;;12.90;4.15;;;13.50;99.90;;;;;;6213980;23;19996;-82
2023/04/26 05:55:45;;;;;;;17.00;4.10;;;14.60;99.70;;;;;;6213450;23;20000;-85
2023/04/26 05:58:11;;;;;;;13.35;4.57;;;14.00;99.40;;;;;;6214721;23;20009;-83
2023/04/26 06:00:40;;;;;;;12.25;4.50;;;14.40;99.00;;;;;;6214116;23;20335;-83
2023/04/26 06:03:06;;;;;;;12.93;4.55;;;13.60;99.60;;;;;;6213948;23;20496;-83
2023/04/26 06:05:31;;;;;;;10.98;4.28;;;14.30;99.90;;;;;;6186686;23;20023;-83
2023/04/26 06:07:57;;;;;;;9.10;3.65;;;13.70;98.40;;;;;;6208086;23;20027;-83
2023/04/26 06:10:22;;;;;;;9.32;3.90;;;14.70;99.10;;;;;;6213789;23;20000;-82
2023/04/26 06:12:48;;;;;;;10.00;3.97;;;14.40;97.60;;;;;;6213024;23;20368;-87
2023/04/26 06:15:14;;;;;;;10.73;3.80;;;15.10;98.40;;;;;;6212519;23;19996;-83
2023/04/26 06:17:40;;;;;;;11.27;3.85;;;15.10;97.60;;;;;;6211967;23;20004;-83
2023/04/26 06:20:08;;;;;;;12.55;4.03;;;14.90;97.50;;;;;;6211307;23;20328;-84
2023/04/26 06:22:34;;;;;;;12.60;4.45;;;14.70;97.70;;;;;;6212359;23;20400;-85
2023/04/26 06:25:00;;;;;;;12.13;3.75;;;14.50;97.60;;;;;;6185443;23;20010;-86
2023/04/26 06:27:25;;;;;;;11.63;3.95;;;14.60;97.70;;;;;;6211654;23;20001;-86
2023/04/26 06:29:51;;;;;;;7.43;4.03;;;13.70;97.70;;;;;;6213335;23;20016;-86
2023/04/26 06:32:17;;;;;;;12.23;3.75;;;14.60;98.80;;;;;;6187759;23;20000;-88
2023/04/26 06:34:44;;;;;;;9.90;3.75;;;14.30;98.10;;;;;;6187518;23;20015;-88
2023/04/26 06:37:10;;;;;;;10.07;3.63;;;14.80;97.90;;;;;;6213844;23;20416;-87
2023/04/26 06:39:37;;;;;;;13.00;4.40;;;15.00;97.80;;;;;;6214197;23;20012;-86
2023/04/26 06:42:03;;;;;;;10.90;3.90;;;14.40;97.40;;;;;;6215441;23;20008;-87
2023/04/26 06:44:29;;;;;;;10.32;3.92;;;14.40;97.80;;;;;;6210682;23;20027;-85
2023/04/26 06:46:55;;;;;;;11.25;4.03;;;14.40;97.00;;;;;;6187004;23;20107;-81
2023/04/26 06:49:21;;;;;;;11.60;3.95;;;13.60;99.30;;;;;;6215298;23;20007;-80
2023/04/26 06:51:46;;;;;;;12.02;4.10;;;15.00;98.50;;;;;;6214605;23;20012;-81
2023/04/26 06:54:12;;;;;;;11.45;4.03;;;15.90;97.20;;;;;;6215459;23;20090;-82
2023/04/26 06:56:37;;;;;;;6.32;3.40;;;16.30;96.20;;;;;;6216007;23;20005;-81
2023/04/26 06:59:05;;;;;;;12.23;4.07;;;16.70;95.80;;;;;;6221610;23;20027;-82
2023/04/26 07:01:34;;;;;;;10.05;4.35;;;16.60;95.80;;;;;;6220591;23;20004;-82
2023/04/26 07:04:02;;;;;;;11.53;4.03;;;16.90;95.20;;;;;;6215606;23;20005;-81
2023/04/26 07:06:28;;;;;;;11.82;2.97;;;17.20;94.20;;;;;;6214589;23;20555;-81
2023/04/26 07:08:54;;;;;;;8.38;3.78;;;16.60;94.10;;;;;;6215041;23;20480;-81
2023/04/26 07:11:20;;;;;;;10.27;3.35;;;16.10;95.70;;;;;;6214494;23;20028;-83
2023/04/26 07:13:46;;;;;;;12.52;4.43;;;16.70;95.20;;;;;;6215231;23;20088;-81
2023/04/26 07:16:11;;;;;;;11.50;3.53;;;16.80;95.30;;;;;;6214679;23;20000;-81
2023/04/26 07:18:39;;;;;;;11.02;3.72;;;15.70;95.40;;;;;;6214671;23;20005;-82
2023/04/26 07:21:05;;;;;;;11.95;3.90;;;15.90;95.60;;;;;;6214066;23;20079;-82
2023/04/26 07:23:31;;;;;;;20.33;4.18;;;15.70;95.80;;;;;;6214775;23;20434;-82
2023/04/26 07:25:57;;;;;;;14.90;4.07;;;14.90;97.00;;;;;;6214842;23;20040;-81
2023/04/26 07:28:22;;;;;;;13.95;4.50;;;15.70;97.30;;;;;;6188343;23;20072;-82
2023/04/26 07:30:48;;;;;;;9.73;3.42;;;15.70;96.70;;;;;;6213947;23;20021;-81
2023/04/26 07:33:13;;;;;;;11.98;3.95;;;15.30;97.50;;;;;;6213880;23;20004;-81
2023/04/26 07:35:39;;;;;;;7.70;3.53;;;13.00;98.60;;;;;;6214754;23;20008;-81
2023/04/26 07:38:06;;;;;;;10.25;3.72;;;12.00;99.60;;;;;;6214262;23;20004;-82
2023/04/26 07:40:31;;;;;;;16.33;4.20;;;10.90;99.90;;;;;;6205230;23;20687;-81
2023/04/26 07:42:57;;;;;;;15.63;4.35;;;10.80;99.90;;;;;;6212742;23;20005;-82
2023/04/26 07:45:22;;;;;;;16.40;4.53;;;10.90;99.90;;;;;;6213936;23;20012;-81
2023/04/26 07:47:48;;;;;;;12.43;3.90;;;10.90;99.90;;;;;;6213372;23;20433;-81
2023/04/26 07:50:13;;;;;;;15.48;4.03;;;10.30;99.90;;;;;;6212657;23;20013;-81
2023/04/26 07:52:39;;;;;;;13.15;3.63;;;10.10;99.90;;;;;;6214374;23;20028;-82
2023/04/26 07:55:05;;;;;;;8.45;3.85;;;9.90;99.90;;;;;;6214442;23;20008;-81
2023/04/26 07:57:31;;;;;;;13.45;4.10;;;9.70;99.90;;;;;;6214719;23;20004;-83
2023/04/26 07:59:56;;;;;;;11.68;4.43;;;9.70;99.90;;;;;;6214456;23;20004;-83
2023/04/26 08:02:22;;;;;;;7.43;3.58;;;10.00;99.90;;;;;;6214305;23;20007;-82
2023/04/26 08:04:51;;;;;;;13.25;3.83;;;10.40;99.90;;;;;;6215283;23;20050;-82
2023/04/26 08:07:20;;;;;;;14.32;4.13;;;10.20;99.90;;;;;;6214163;23;20055;-81
2023/04/26 08:09:46;;;;;;;10.93;3.65;;;10.10;99.90;;;;;;6214619;23;20027;-82
2023/04/26 08:12:12;;;;;;;7.70;3.45;;;10.60;99.90;;;;;;6214579;23;20000;-82
2023/04/26 08:14:38;;;;;;;8.00;3.25;;;11.10;99.90;;;;;;6214388;23;20005;-82
2023/04/26 08:17:05;;;;;;;10.55;4.35;;;11.20;99.90;;;;;;6213934;23;20009;-82
2023/04/26 08:19:32;;;;;;;9.80;3.33;;;11.10;99.90;;;;;;6214764;23;20042;-81
2023/04/26 08:21:57;;;;;;;9.52;3.40;;;11.10;99.90;;;;;;6215204;23;20005;-81
2023/04/26 08:24:23;;;;;;;8.13;3.05;;;11.20;99.90;;;;;;6226300;23;20447;-81
2023/04/26 08:26:48;;;;;;;13.82;3.95;;;11.40;99.90;;;;;;6231786;23;20016;-80
2023/04/26 08:29:15;;;;;;;9.93;3.60;;;11.40;99.90;;;;;;6242152;22;20007;-81
2023/04/26 08:31:40;;;;;;;11.15;3.75;;;11.40;99.90;;;;;;6242205;22;19997;-82
2023/04/26 08:34:10;;;;;;;9.05;3.38;;;11.20;99.90;;;;;;6200464;23;20008;-82
2023/04/26 08:36:42;;;;;;;7.70;3.50;;;11.10;99.90;;;;;;6226628;23;20005;-81
2023/04/26 08:39:08;;;;;;;11.23;3.72;;;10.40;99.90;;;;;;6214863;23;20004;-81
2023/04/26 08:41:48;;;;;;;9.38;3.00;;;10.90;99.90;;;;;;6214083;23;20043;-81
2023/04/26 08:44:14;;;;;;;10.40;2.95;;;10.90;99.90;;;;;;6214139;23;20016;-81
2023/04/26 08:47:05;;;;;;;12.52;3.38;;;11.10;99.90;;;;;;6208388;23;20013;-81
2023/04/26 08:49:40;;;;;;;12.35;3.33;;;10.70;99.90;;;;;;6214152;23;20055;-82
2023/04/26 08:52:11;;;;;;;44.53;5.72;;;10.70;99.90;;;;;;6187775;23;20096;-81
2023/04/26 08:54:39;;;;;;;10.50;3.20;;;10.90;99.90;;;;;;6213703;23;20059;-81
2023/04/26 08:57:08;;;;;;;6.03;2.75;;;10.70;99.90;;;;;;6214617;23;20011;-81
2023/04/26 08:59:35;;;;;;;15.02;3.22;;;11.00;99.90;;;;;;6214778;23;20010;-81
2023/04/26 09:02:03;;;;;;;9.18;3.15;;;11.00;99.90;;;;;;6213905;23;20073;-81
2023/04/26 09:04:28;;;;;;;10.18;3.42;;;11.10;99.90;;;;;;6213816;23;20424;-82
2023/04/26 09:06:59;;;;;;;8.45;3.35;;;10.90;99.90;;;;;;6188009;23;20016;-82
2023/04/26 09:09:27;;;;;;;7.43;3.33;;;10.90;99.90;;;;;;6214105;23;20505;-81
2023/04/26 09:12:00;;;;;;;10.65;3.17;;;11.10;99.90;;;;;;6213566;23;20004;-80
2023/04/26 09:14:26;;;;;;;9.43;3.35;;;12.10;99.90;;;;;;6214553;23;20027;-81
2023/04/26 09:16:52;;;;;;;6.70;2.78;;;12.80;99.90;;;;;;6214414;23;20008;-80
2023/04/26 09:19:37;;;;;;;10.93;3.00;;;11.90;98.70;;;;;;6214287;23;20012;-80
2023/04/26 09:22:03;;;;;;;18.00;3.58;;;11.50;99.90;;;;;;6212815;23;20005;-80
2023/04/26 09:24:47;;;;;;;9.23;3.38;;;11.70;99.90;;;;;;6213933;23;20087;-81
2023/04/26 09:27:12;;;;;;;12.77;3.38;;;12.20;99.90;;;;;;6214390;23;20008;-81
2023/04/26 09:29:38;;;;;;;7.07;2.75;;;12.90;99.90;;;;;;6213483;23;20013;-81
2023/04/26 09:32:04;;;;;;;10.10;2.80;;;13.20;99.90;;;;;;6215113;23;20008;-80
2023/04/26 09:34:42;;;;;;;8.80;2.88;;;13.70;99.10;;;;;;6213147;23;20479;-80
2023/04/26 09:37:11;;;;;;;7.82;2.88;;;13.70;99.10;;;;;;6208356;23;20000;-81
2023/04/26 09:39:39;;;;;;;13.43;3.33;;;13.30;99.00;;;;;;6215381;23;20007;-80
2023/04/26 09:42:06;;;;;;;7.90;2.97;;;13.40;97.70;;;;;;6213847;23;20009;-82
2023/04/26 09:44:32;;;;;;;10.25;3.42;;;12.70;98.50;;;;;;6213365;23;20011;-80
2023/04/26 09:47:10;;;;;;;6.93;3.00;;;11.90;97.70;;;;;;6213903;23;20009;-81
2023/04/26 09:49:44;;;;;;;7.28;3.10;;;10.80;98.90;;;;;;6186685;23;20005;-81
2023/04/26 09:52:10;;;;;;;9.85;3.10;;;10.20;99.90;;;;;;6213903;23;20500;-80
2023/04/26 09:54:46;;;;;;;8.77;3.38;;;10.00;99.90;;;;;;6213671;23;20040;-81
2023/04/26 09:57:14;;;;;;;11.70;3.10;;;9.80;99.90;;;;;;6213775;23;20012;-81
2023/04/26 09:59:46;;;;;;;8.25;3.10;;;9.90;99.90;;;;;;6213572;23;20009;-81
2023/04/26 10:02:23;;;;;;;16.08;3.97;;;9.80;99.90;;;;;;6213703;23;20000;-81
2023/04/26 10:04:52;;;;;;;14.27;3.30;;;10.00;99.90;;;;;;6213121;23;20044;-81
2023/04/26 10:07:29;;;;;;;9.18;3.25;;;10.40;99.90;;;;;;6213398;23;20013;-81
2023/04/26 10:10:03;;;;;;;8.73;3.35;;;10.40;99.90;;;;;;6204512;23;20012;-81
2023/04/26 10:12:29;;;;;;;12.27;3.63;;;9.90;99.90;;;;;;6214415;23;20043;-82
2023/04/26 10:15:02;;;;;;;11.05;3.67;;;10.20;99.90;;;;;;6214662;23;20008;-82
2023/04/26 10:17:28;;;;;;;7.05;2.92;;;10.50;99.90;;;;;;6215497;23;20467;-82
2023/04/26 10:19:57;;;;;;;10.93;3.75;;;10.30;99.90;;;;;;6188885;23;20424;-81
2023/04/26 10:22:27;;;;;;;9.32;3.72;;;10.40;99.90;;;;;;6216125;23;20001;-81
2023/04/26 10:24:53;;;;;;;8.85;3.85;;;10.40;99.90;;;;;;6216016;23;20008;-81
2023/04/26 10:27:44;;;;;;;10.70;3.72;;;9.90;99.90;;;;;;6189355;23;20012;-81
2023/04/26 10:30:12;;;;;;;9.95;4.03;;;10.10;99.90;;;;;;6216025;23;20011;-80
2023/04/26 10:32:56;;;;;;;6.65;3.83;;;10.10;99.90;;;;;;6210649;23;20016;-81
2023/04/26 10:35:31;;;;;;;10.07;4.10;;;10.20;99.90;;;;;;6216468;23;20404;-81
2023/04/26 10:38:02;;;;;;;12.70;4.93;;;10.60;99.90;;;;;;6215063;23;20004;-81
2023/04/26 10:40:31;;;;;;;13.68;4.38;;;11.00;99.90;;;;;;6214748;23;20134;-81
2023/04/26 10:43:13;;;;;;;14.18;4.65;;;11.50;99.90;;;;;;6212690;23;20004;-81
2023/04/26 10:45:40;;;;;;;8.73;4.22;;;10.90;99.90;;;;;;6215043;23;20689;-80
2023/04/26 10:48:18;;;;;;;10.43;4.70;;;10.90;99.90;;;;;;6214787;23;20507;-82
2023/04/26 10:51:07;;;;;;;12.18;3.70;;;11.40;99.90;;;;;;6214595;23;20008;-82
2023/04/26 10:53:48;;;;;;;10.68;4.22;;;11.50;99.90;;;;;;6215406;23;20004;-81
2023/04/26 10:56:22;;;;;;;10.60;4.05;;;11.20;99.80;;;;;;6214892;23;20005;-81
2023/04/26 10:58:48;;;;;;;8.13;4.10;;;10.90;99.90;;;;;;6214442;23;20557;-83
2023/04/26 11:01:15;;;;;;;7.38;3.72;;;10.60;99.90;;;;;;6215197;23;20015;-82
2023/04/26 11:03:42;;;;;;;7.38;4.03;;;10.80;99.90;;;;;;6215342;23;20004;-83
2023/04/26 11:06:08;;;;;;;14.13;4.72;;;10.50;99.60;;;;;;6214798;23;20017;-82
2023/04/26 11:08:35;;;;;;;10.07;4.70;;;10.40;99.90;;;;;;6215393;23;20012;-82
2023/04/26 11:11:01;;;;;;;11.77;4.30;;;10.40;99.90;;;;;;6214398;23;20421;-82
2023/04/26 11:13:29;;;;;;;12.55;4.28;;;10.30;99.90;;;;;;6187518;23;20004;-82
2023/04/26 11:16:02;;;;;;;11.07;3.92;;;10.70;99.90;;;;;;6215388;23;20071;-82
2023/04/26 11:18:28;;;;;;;8.82;3.85;;;10.80;99.80;;;;;;6214838;23;20371;-82
2023/04/26 11:20:54;;;;;;;12.02;3.85;;;11.20;99.90;;;;;;6215198;23;20009;-83
2023/04/26 11:23:20;;;;;;;10.23;3.83;;;11.20;99.50;;;;;;6214962;23;20009;-83
2023/04/26 11:25:45;;;;;;;11.95;4.25;;;11.50;99.80;;;;;;6212670;23;20012;-82
2023/04/26 11:28:11;;;;;;;11.02;4.20;;;11.60;99.70;;;;;;6211950;23;20405;-82
2023/04/26 11:30:36;;;;;;;5.25;3.15;;;11.90;99.40;;;;;;6214969;23;20467;-85
2023/04/26 11:33:05;;;;;;;12.45;4.35;;;12.20;99.20;;;;;;6214741;23;20009;-85
2023/04/26 11:35:35;;;;;;;11.68;4.43;;;12.20;99.40;;;;;;6214871;23;20000;-84
2023/04/26 11:38:04;;;;;;;11.18;4.30;;;12.00;99.10;;;;;;6215503;23;20083;-84
2023/04/26 11:40:30;;;;;;;6.70;3.75;;;11.70;99.40;;;;;;6193844;23;20000;-84
2023/04/26 11:43:01;;;;;;;10.68;3.80;;;11.50;99.90;;;;;;6243063;23;20031;-84
2023/04/26 11:45:26;;;;;;;;;;;11.20;99.90;;;;;;6242490;23;20003;-84
2023/04/26 11:47:52;;;;;;;10.07;3.85;;;11.20;99.90;;;;;;6242717;22;19892;-83
2023/04/26 11:50:19;;;;;;;8.35;3.65;;;11.00;99.90;;;;;;6224567;22;20020;-83
2023/04/26 11:52:45;;;;;;;9.13;3.90;;;11.10;99.90;;;;;;6214604;23;20015;-84
2023/04/26 11:55:11;;;;;;;6.65;3.67;;;11.00;99.90;;;;;;6214890;23;20387;-83
2023/04/26 11:57:36;;;;;;;10.75;3.47;;;11.00;99.90;;;;;;6188248;23;20459;-83
2023/04/26 12:00:13;;;;;;;9.10;3.70;;;10.80;99.90;;;;;;6215006;23;20004;-84
2023/04/26 12:02:46;;;;;;;8.77;3.25;;;10.80;99.90;;;;;;6214917;23;20005;-83
2023/04/26 12:05:31;;;;;;;7.75;3.72;;;10.80;99.90;;;;;;6213894;23;20012;-83
2023/04/26 12:07:58;;;;;;;12.13;4.03;;;11.00;99.90;;;;;;6214688;23;20004;-83
2023/04/26 12:10:26;;;;;;;11.25;4.38;;;11.30;99.90;;;;;;6214459;23;20004;-83
2023/04/26 12:12:55;;;;;;;11.15;3.70;;;11.50;99.90;;;;;;6214341;23;20004;-83
2023/04/26 12:15:28;;;;;;;17.13;4.75;;;11.70;99.40;;;;;;6214511;23;20001;-84
2023/04/26 12:18:05;;;;;;;7.57;3.97;;;12.10;99.90;;;;;;6213653;23;20039;-84
2023/04/26 12:20:33;;;;;;;9.30;3.63;;;12.10;98.80;;;;;;6212951;23;20088;-84
2023/04/26 12:23:04;;;;;;;8.48;3.92;;;12.30;99.30;;;;;;6212991;23;20032;-84
2023/04/26 12:25:30;;;;;;;16.20;3.97;;;12.30;98.20;;;;;;6214154;23;20013;-83
2023/04/26 12:27:57;;;;;;;8.70;3.83;;;12.40;99.10;;;;;;6213998;23;20027;-83
2023/04/26 12:30:22;;;;;;;7.35;4.20;;;12.50;98.70;;;;;;6213786;23;20028;-84
2023/04/26 12:32:48;;;;;;;7.88;3.63;;;12.40;98.30;;;;;;6213625;23;20007;-84
2023/04/26 12:35:14;;;;;;;8.05;4.18;;;12.40;98.70;;;;;;6213989;23;20334;-84
2023/04/26 12:37:40;;;;;;;8.88;3.67;;;12.50;98.10;;;;;;6213970;23;20027;-84
2023/04/26 12:40:06;;;;;;;7.70;4.03;;;12.10;96.60;;;;;;6213578;23;20004;-84
2023/04/26 12:42:32;;;;;;;8.98;3.97;;;12.10;99.00;;;;;;6213862;23;20012;-84
2023/04/26 12:44:58;;;;;;;11.82;4.68;;;12.50;98.60;;;;;;6213949;23;20005;-83